Aviano, Italy

2:57 AM CET on March 27, 2015 (GMT +0100)
Aviano USAFB | | Change Station
CLOSE
Current Station
Airport
Location: Aviano USAFB,
Elevation: 413 ft
Nearby Weather Stations
Active Advisory: Thunderstorms

Elev 413 ft 46.03 °N, 12.60 °E | Updated 59 minutes ago

Light Drizzle
Light Drizzle
51 °F
Feels Like 51 °F
N
2
Wind Variable Wind from NNE

Today
High -- | Low -- °F
--% Chance of Precip.
Yesterday
High -- | Low -- °F
Precip. -- in
6:00 AM 6:30 PM
Waxing Crescent, 48% visible
Pressure 29.73 in
Visibility 6.2 miles
Clouds Overcast 1500 ft
Dew Point 51 °F
Humidity 100%
Rainfall 0.00 in
Snow Depth Not available.
UV 0 out of 12
Pollen Not available.
Air Quality Not available.
Flu Activity Not available.
METAR LIYW 270058Z AUTO 02002KT 9999 -DZ OVC015 11/11 A2972 RMK AO2 UPB30E33RAB33E50DZB50 SLP068 P0000 T01080108 $

More Conditions Fewer Conditions

Pressure 29.73 in
Visibility 6.2 miles
Clouds Overcast 1500 ft
Dew Point 51 °F
Humidity 100%
Rainfall 0.00 in
Snow Depth Not available.
UV 0 out of 12
Pollen Not available.
Air Quality Not available.
Flu Activity Not available.
METAR LIYW 270058Z AUTO 02002KT 9999 -DZ OVC015 11/11 A2972 RMK AO2 UPB30E33RAB33E50DZB50 SLP068 P0000 T01080108 $

More Conditions Fewer Conditions

10-Day Weather Forecast

Almanac

Astronomy

Mar. 27, 2015 Rise Set
Actual Time
Civil Twilight
Nautical Twilight
Astronomical Twilight
Moon
Length of Visible Light
Length of Day
Tomorrow will be .
, % of the Moon is Illuminated

Today's Extremes

Country Highs Country Lows

Community

WunderPhotos

Upload Photos

1,808,680 photos uploaded!

WunderBlogs® & News

Nearby

Air Quality

  Air Quality AQ Index Pollutant
Not available.

Snow Depth

Station Depth Elevation

Earthquake Activity

City Distance Mag. Time & Date
Minimum magnitude displayed is 2.5.

Coastal Water Temperatures

Place Temperature

Stations

Nearby Weather Stations

Station Location Temp. Windchill Dew Point Humidity Wind Precip. Elev Updated Type